Chiniot Weather



Chiniot's Current Weather

Temprature 24.646o few clouds

few clouds

Rain: 0 %

Min Temprature24.646o
Max Temprature24.646o
Humidity39
Wind Speed2.61 m/h
Sun Rise05:33:16
Sun Set18:40:08
Current Time: 21-Apr-2019 05:13:16
Lat/Lon: 31.72, 72.98




Chiniot's Geo Location



Chiniot's Weather Forecast

Time Overall Temp Min Temp Max Temp Humidity Wind Speed Rain
21-Apr-2019 (Sun)
08:00:00 scattered clouds 28.330 28.329 28.330 35 2.5 m/h 0 %
11:00:00 few clouds 34.150 34.150 34.150 23 1.81 m/h 0 %
14:00:00 clear sky 36.650 36.650 36.650 19 1.39 m/h 0 %
17:00:00 clear sky 36.050 36.050 36.050 19 1.62 m/h 0 %
20:00:00 clear sky 31.150 31.150 31.150 26 2.55 m/h 0 %
23:00:00 clear sky 28.930 28.930 28.930 32 2.56 m/h 0 %
22-Apr-2019 (Mon)
02:00:00 clear sky 27.370 27.370 27.370 36 3.01 m/h 0 %
05:00:00 clear sky 25.904 25.904 25.904 37 2.54 m/h 0 %
08:00:00 clear sky 29.776 29.776 29.776 30 2.25 m/h 0 %
11:00:00 clear sky 36.220 36.220 36.220 21 0.59 m/h 0 %
14:00:00 clear sky 38.315 38.315 38.315 17 1.95 m/h 0 %
17:00:00 clear sky 38.231 38.231 38.231 15 1.7 m/h 0 %
20:00:00 clear sky 32.950 32.950 32.950 21 1.95 m/h 0 %
23:00:00 clear sky 29.896 29.896 29.896 28 2.95 m/h 0 %
23-Apr-2019 (Tue)
02:00:00 clear sky 28.277 28.277 28.277 31 3.26 m/h 0 %
05:00:00 clear sky 26.856 26.856 26.856 33 1.75 m/h 0 %
08:00:00 broken clouds 31.187 31.187 31.187 27 0.88 m/h 0 %
11:00:00 scattered clouds 38.250 38.250 38.250 17 0.89 m/h 0 %
14:00:00 clear sky 40.250 40.250 40.250 13 1.95 m/h 0 %
17:00:00 clear sky 40.050 40.050 40.050 12 1.02 m/h 0 %
20:00:00 clear sky 34.228 34.228 34.228 19 3.57 m/h 0 %
23:00:00 few clouds 31.250 31.250 31.250 23 3.28 m/h 0 %
24-Apr-2019 (Wed)
02:00:00 overcast clouds 30.382 30.382 30.382 22 3.93 m/h 0 %
05:00:00 overcast clouds 27.844 27.844 27.844 28 3.55 m/h 0 %
08:00:00 overcast clouds 31.550 31.550 31.550 22 5.58 m/h 0 %
11:00:00 scattered clouds 38.708 38.708 38.708 13 3.21 m/h 0 %
14:00:00 clear sky 42.550 42.550 42.550 9 6.48 m/h 0 %
17:00:00 scattered clouds 38.350 38.350 38.350 15 8.36 m/h 0 %
20:00:00 overcast clouds 32.155 32.155 32.155 25 3.77 m/h 0 %
23:00:00 overcast clouds 30.045 30.045 30.045 32 9.35 m/h 0 %
25-Apr-2019 (Thu)
02:00:00 light rain 29.250 29.250 29.250 32 3.2 m/h 50 %
05:00:00 light rain 28.292 28.292 28.292 37 2.18 m/h 13 %
08:00:00 overcast clouds 30.120 30.120 30.120 35 2.19 m/h 0 %
11:00:00 scattered clouds 36.390 36.390 36.390 20 2.13 m/h 0 %
14:00:00 clear sky 39.050 39.050 39.050 12 3.64 m/h 0 %
17:00:00 few clouds 38.711 38.711 38.711 12 2.81 m/h 0 %
20:00:00 scattered clouds 33.225 33.225 33.225 18 3.16 m/h 0 %
23:00:00 broken clouds 30.843 30.843 30.843 23 2.95 m/h 0 %
26-Apr-2019 (Fri)
02:00:00 overcast clouds 29.332 29.332 29.332 25 2.25 m/h 0 %
05:00:00 broken clouds 27.376 27.376 27.376 27 2.82 m/h 0 %


Chiniot's Tourist Spots

Historical Places in Chiniot

Famous Cities (60)